sensor_id;sensor_type;location;lat;lon;timestamp;pressure;altitude;pressure_sealevel;temperature;humidity
50852;BME280;43953;45.508;-122.806;2023-04-21T00:00:21;101754.34;;;10.02;69.69
50852;BME280;43953;45.508;-122.806;2023-04-21T00:00:54;101755.22;;;10.03;69.49
50852;BME280;43953;45.508;-122.806;2023-04-21T00:01:26;101753.34;;;10.03;69.87
50852;BME280;43953;45.508;-122.806;2023-04-21T00:02:00;101759.72;;;10.02;69.75
50852;BME280;43953;45.508;-122.806;2023-04-21T00:02:32;101754.69;;;9.99;69.47
50852;BME280;43953;45.508;-122.806;2023-04-21T00:03:03;101755.94;;;9.97;69.84
50852;BME280;43953;45.508;-122.806;2023-04-21T00:03:35;101760.44;;;9.96;69.50
50852;BME280;43953;45.508;-122.806;2023-04-21T00:04:08;101755.94;;;9.97;69.54
50852;BME280;43953;45.508;-122.806;2023-04-21T00:04:40;101757.59;;;9.98;69.58
50852;BME280;43953;45.508;-122.806;2023-04-21T00:05:15;101760.66;;;9.95;69.71
50852;BME280;43953;45.508;-122.806;2023-04-21T00:05:47;101760.81;;;9.93;69.75
50852;BME280;43953;45.508;-122.806;2023-04-21T00:06:19;101751.75;;;9.94;69.93
50852;BME280;43953;45.508;-122.806;2023-04-21T00:06:52;101743.84;;;9.93;69.70
50852;BME280;43953;45.508;-122.806;2023-04-21T00:07:24;101746.34;;;9.94;69.87
50852;BME280;43953;45.508;-122.806;2023-04-21T00:07:56;101741.81;;;9.95;69.56
50852;BME280;43953;45.508;-122.806;2023-04-21T00:08:28;101744.50;;;9.95;69.73
50852;BME280;43953;45.508;-122.806;2023-04-21T00:09:00;101744.31;;;9.96;69.81
50852;BME280;43953;45.508;-122.806;2023-04-21T00:09:32;101739.78;;;9.97;69.77
50852;BME280;43953;45.508;-122.806;2023-04-21T00:10:05;101743.94;;;9.99;69.58
50852;BME280;43953;45.508;-122.806;2023-04-21T00:10:37;101738.56;;;9.99;69.47
50852;BME280;43953;45.508;-122.806;2023-04-21T00:11:09;101732.00;;;10.02;69.73
50852;BME280;43953;45.508;-122.806;2023-04-21T00:11:41;101738.41;;;10.01;69.51
50852;BME280;43953;45.508;-122.806;2023-04-21T00:12:13;101737.25;;;9.95;69.57
50852;BME280;43953;45.508;-122.806;2023-04-21T00:12:45;101740.66;;;9.89;69.59
50852;BME280;43953;45.508;-122.806;2023-04-21T00:13:16;101731.28;;;9.85;69.68
50852;BME280;43953;45.508;-122.806;2023-04-21T00:13:48;101732.28;;;9.84;69.87
50852;BME280;43953;45.508;-122.806;2023-04-21T00:14:20;101729.31;;;9.79;70.09
50852;BME280;43953;45.508;-122.806;2023-04-21T00:14:52;101727.63;;;9.78;70.22
50852;BME280;43953;45.508;-122.806;2023-04-21T00:15:23;101724.59;;;9.81;69.97
50852;BME280;43953;45.508;-122.806;2023-04-21T00:15:55;101731.47;;;9.84;70.12
50852;BME280;43953;45.508;-122.806;2023-04-21T00:16:27;101723.22;;;9.85;69.91
50852;BME280;43953;45.508;-122.806;2023-04-21T00:16:59;101726.19;;;9.90;70.07
50852;BME280;43953;45.508;-122.806;2023-04-21T00:17:31;101720.66;;;9.92;70.13
50852;BME280;43953;45.508;-122.806;2023-04-21T00:18:02;101723.81;;;9.95;69.90
50852;BME280;43953;45.508;-122.806;2023-04-21T00:18:34;101717.22;;;9.98;69.58
50852;BME280;43953;45.508;-122.806;2023-04-21T00:19:06;101719.56;;;10.01;69.48
50852;BME280;43953;45.508;-122.806;2023-04-21T00:19:38;101723.75;;;10.03;69.37
50852;BME280;43953;45.508;-122.806;2023-04-21T00:20:10;101716.31;;;10.06;69.85
50852;BME280;43953;45.508;-122.806;2023-04-21T00:20:42;101714.28;;;10.08;69.49
50852;BME280;43953;45.508;-122.806;2023-04-21T00:21:15;101717.66;;;10.10;69.38
50852;BME280;43953;45.508;-122.806;2023-04-21T00:21:47;101711.22;;;10.11;69.50
50852;BME280;43953;45.508;-122.806;2023-04-21T00:22:19;101706.88;;;10.10;69.49
50852;BME280;43953;45.508;-122.806;2023-04-21T00:22:58;101703.16;;;10.11;69.37
50852;BME280;43953;45.508;-122.806;2023-04-21T00:23:30;101703.34;;;10.09;69.58
50852;BME280;43953;45.508;-122.806;2023-04-21T00:24:02;101695.28;;;10.09;69.50
50852;BME280;43953;45.508;-122.806;2023-04-21T00:24:33;101702.53;;;10.09;69.14
50852;BME280;43953;45.508;-122.806;2023-04-21T00:25:06;101694.63;;;10.07;69.43
50852;BME280;43953;45.508;-122.806;2023-04-21T00:25:38;101698.16;;;10.08;69.49
50852;BME280;43953;45.508;-122.806;2023-04-21T00:26:10;101709.75;;;10.08;69.20
50852;BME280;43953;45.508;-122.806;2023-04-21T00:26:41;101695.44;;;10.08;69.29
50852;BME280;43953;45.508;-122.806;2023-04-21T00:27:13;101698.16;;;10.08;69.21
50852;BME280;43953;45.508;-122.806;2023-04-21T00:27:45;101699.84;;;10.09;69.42
50852;BME280;43953;45.508;-122.806;2023-04-21T00:28:17;101698.16;;;10.08;69.14
50852;BME280;43953;45.508;-122.806;2023-04-21T00:28:49;101700.00;;;10.07;69.30
50852;BME280;43953;45.508;-122.806;2023-04-21T00:29:21;101698.16;;;10.08;69.11
50852;BME280;43953;45.508;-122.806;2023-04-21T00:29:52;101697.31;;;10.07;69.53
50852;BME280;43953;45.508;-122.806;2023-04-21T00:30:24;101694.78;;;10.06;69.46
50852;BME280;43953;45.508;-122.806;2023-04-21T00:30:58;101696.84;;;10.03;69.27
50852;BME280;43953;45.508;-122.806;2023-04-21T00:31:30;101694.16;;;10.03;69.60
50852;BME280;43953;45.508;-122.806;2023-04-21T00:32:02;101694.97;;;10.04;69.57
50852;BME280;43953;45.508;-122.806;2023-04-21T00:32:37;101696.84;;;10.03;69.46
50852;BME280;43953;45.508;-122.806;2023-04-21T00:33:09;101691.47;;;10.03;69.33
50852;BME280;43953;45.508;-122.806;2023-04-21T00:33:40;101688.78;;;10.03;69.33
50852;BME280;43953;45.508;-122.806;2023-04-21T00:34:12;101689.59;;;10.04;69.66
50852;BME280;43953;45.508;-122.806;2023-04-21T00:34:44;101695.66;;;10.06;69.36
50852;BME280;43953;45.508;-122.806;2023-04-21T00:35:16;101691.75;;;10.09;69.47
50852;BME280;43953;45.508;-122.806;2023-04-21T00:35:47;101690.53;;;10.11;69.47
50852;BME280;43953;45.508;-122.806;2023-04-21T00:36:19;101695.75;;;10.13;69.34
50852;BME280;43953;45.508;-122.806;2023-04-21T00:36:51;101692.03;;;10.14;69.28
50852;BME280;43953;45.508;-122.806;2023-04-21T00:37:22;101688.34;;;10.15;69.50
50852;BME280;43953;45.508;-122.806;2023-04-21T00:37:54;101691.03;;;10.15;69.43
50852;BME280;43953;45.508;-122.806;2023-04-21T00:38:26;101688.34;;;10.15;69.27
50852;BME280;43953;45.508;-122.806;2023-04-21T00:38:58;101689.34;;;10.14;69.12
50852;BME280;43953;45.508;-122.806;2023-04-21T00:39:29;101684.31;;;10.11;69.31
50852;BME280;43953;45.508;-122.806;2023-04-21T00:40:01;101688.88;;;10.10;69.44
50852;BME280;43953;45.508;-122.806;2023-04-21T00:40:34;101690.72;;;10.10;69.54
50852;BME280;43953;45.508;-122.806;2023-04-21T00:41:06;101685.34;;;10.10;69.47
50852;BME280;43953;45.508;-122.806;2023-04-21T00:41:38;101688.72;;;10.12;69.57
50852;BME280;43953;45.508;-122.806;2023-04-21T00:42:10;101685.81;;;10.13;69.43
50852;BME280;43953;45.508;-122.806;2023-04-21T00:42:42;101693.72;;;10.15;69.52
50852;BME280;43953;45.508;-122.806;2023-04-21T00:43:13;101689.16;;;10.15;69.42
50852;BME280;43953;45.508;-122.806;2023-04-21T00:44:05;101685.00;;;10.13;69.79
50852;BME280;43953;45.508;-122.806;2023-04-21T00:44:37;101686.66;;;10.14;69.63
50852;BME280;43953;45.508;-122.806;2023-04-21T00:45:09;101685.00;;;10.13;69.74
50852;BME280;43953;45.508;-122.806;2023-04-21T00:45:43;101676.91;;;10.13;69.76
50852;BME280;43953;45.508;-122.806;2023-04-21T00:46:15;101683.31;;;10.12;69.81
50852;BME280;43953;45.508;-122.806;2023-04-21T00:46:47;101684.31;;;10.11;69.39
50852;BME280;43953;45.508;-122.806;2023-04-21T00:47:19;101681.63;;;10.11;69.58
50852;BME280;43953;45.508;-122.806;2023-04-21T00:47:51;101680.81;;;10.10;69.60
50852;BME280;43953;45.508;-122.806;2023-04-21T00:48:22;101676.25;;;10.11;69.65
50852;BME280;43953;45.508;-122.806;2023-04-21T00:48:54;101675.41;;;10.10;69.53
50852;BME280;43953;45.508;-122.806;2023-04-21T00:49:26;101680.63;;;10.12;69.93
50852;BME280;43953;45.508;-122.806;2023-04-21T00:49:58;101676.25;;;10.11;69.66
50852;BME280;43953;45.508;-122.806;2023-04-21T00:50:31;101676.25;;;10.11;69.42
50852;BME280;43953;45.508;-122.806;2023-04-21T00:51:03;101677.94;;;10.12;69.63
50852;BME280;43953;45.508;-122.806;2023-04-21T00:51:35;101672.56;;;10.12;69.91
50852;BME280;43953;45.508;-122.806;2023-04-21T00:52:08;101672.34;;;10.13;69.84
50852;BME280;43953;45.508;-122.806;2023-04-21T00:52:40;101673.19;;;10.14;69.74
50852;BME280;43953;45.508;-122.806;2023-04-21T00:53:14;101673.03;;;10.15;69.43
50852;BME280;43953;45.508;-122.806;2023-04-21T00:53:46;101676.72;;;10.14;69.85
50852;BME280;43953;45.508;-122.806;2023-04-21T00:54:18;101674.03;;;10.14;69.57
50852;BME280;43953;45.508;-122.806;2023-04-21T00:54:52;101675.72;;;10.15;69.69
50852;BME280;43953;45.508;-122.806;2023-04-21T00:55:24;101675.72;;;10.15;69.84
50852;BME280;43953;45.508;-122.806;2023-04-21T00:55:56;101678.41;;;10.15;69.59
50852;BME280;43953;45.508;-122.806;2023-04-21T00:56:30;101676.72;;;10.14;69.60
50852;BME280;43953;45.508;-122.806;2023-04-21T00:57:02;101666.81;;;10.15;69.79
50852;BME280;43953;45.508;-122.806;2023-04-21T00:57:35;101673.03;;;10.15;69.54
50852;BME280;43953;45.508;-122.806;2023-04-21T00:58:08;101680.91;;;10.17;69.71
50852;BME280;43953;45.508;-122.806;2023-04-21T00:58:41;101676.53;;;10.16;70.00
50852;BME280;43953;45.508;-122.806;2023-04-21T00:59:14;101682.41;;;10.19;69.45
50852;BME280;43953;45.508;-122.806;2023-04-21T00:59:46;101677.00;;;10.19;69.90
50852;BME280;43953;45.508;-122.806;2023-04-21T01:00:18;101677.69;;;10.21;69.75
50852;BME280;43953;45.508;-122.806;2023-04-21T01:00:49;101677.84;;;10.20;69.84
50852;BME280;43953;45.508;-122.806;2023-04-21T01:01:21;101675.16;;;10.20;69.67
50852;BME280;43953;45.508;-122.806;2023-04-21T01:01:53;101684.09;;;10.20;69.41
50852;BME280;43953;45.508;-122.806;2023-04-21T01:02:25;101684.91;;;10.21;69.72
50852;BME280;43953;45.508;-122.806;2023-04-21T01:02:59;101679.53;;;10.21;69.79
50852;BME280;43953;45.508;-122.806;2023-04-21T01:03:31;101681.19;;;10.22;69.57
50852;BME280;43953;45.508;-122.806;2023-04-21T01:04:04;101678.69;;;10.20;69.61
50852;BME280;43953;45.508;-122.806;2023-04-21T01:04:36;101682.22;;;10.21;69.71
50852;BME280;43953;45.508;-122.806;2023-04-21T01:05:10;101683.22;;;10.20;69.86
50852;BME280;43953;45.508;-122.806;2023-04-21T01:05:42;101676.00;;;10.20;69.89
50852;BME280;43953;45.508;-122.806;2023-04-21T01:06:14;101682.59;;;10.18;69.70
50852;BME280;43953;45.508;-122.806;2023-04-21T01:06:45;101680.53;;;10.20;69.65
50852;BME280;43953;45.508;-122.806;2023-04-21T01:07:17;101680.38;;;10.21;69.60
50852;BME280;43953;45.508;-122.806;2023-04-21T01:07:49;101683.06;;;10.21;69.79
50852;BME280;43953;45.508;-122.806;2023-04-21T01:08:21;101682.22;;;10.21;69.60
50852;BME280;43953;45.508;-122.806;2023-04-21T01:08:54;101679.34;;;10.22;69.71
50852;BME280;43953;45.508;-122.806;2023-04-21T01:09:26;101681.84;;;10.24;69.56
50852;BME280;43953;45.508;-122.806;2023-04-21T01:09:58;101678.13;;;10.25;69.83
50852;BME280;43953;45.508;-122.806;2023-04-21T01:10:30;101685.19;;;10.26;69.84
50852;BME280;43953;45.508;-122.806;2023-04-21T01:11:12;101676.13;;;10.27;69.31
50852;BME280;43953;45.508;-122.806;2023-04-21T01:12:04;101682.81;;;10.31;69.34
50852;BME280;43953;45.508;-122.806;2023-04-21T01:12:43;101679.09;;;10.32;69.58
50852;BME280;43953;45.508;-122.806;2023-04-21T01:13:18;101677.44;;;10.31;69.30
50852;BME280;43953;45.508;-122.806;2023-04-21T01:13:53;101682.81;;;10.31;69.32
50852;BME280;43953;45.508;-122.806;2023-04-21T01:14:25;101676.78;;;10.29;69.48
50852;BME280;43953;45.508;-122.806;2023-04-21T01:14:57;101670.56;;;10.29;69.37
50852;BME280;43953;45.508;-122.806;2023-04-21T01:15:28;101672.41;;;10.28;69.28
50852;BME280;43953;45.508;-122.806;2023-04-21T01:16:01;101666.22;;;10.28;69.65
50852;BME280;43953;45.508;-122.806;2023-04-21T01:16:33;101670.75;;;10.27;69.53
50852;BME280;43953;45.508;-122.806;2023-04-21T01:17:05;101669.03;;;10.26;69.81
50852;BME280;43953;45.508;-122.806;2023-04-21T01:17:37;101669.03;;;10.26;69.82
50852;BME280;43953;45.508;-122.806;2023-04-21T01:18:10;101662.69;;;10.27;69.47
50852;BME280;43953;45.508;-122.806;2023-04-21T01:18:46;101665.38;;;10.27;69.82
50852;BME280;43953;45.508;-122.806;2023-04-21T01:19:18;101661.84;;;10.27;69.57
50852;BME280;43953;45.508;-122.806;2023-04-21T01:19:52;101662.81;;;10.25;69.79
50852;BME280;43953;45.508;-122.806;2023-04-21T01:20:27;101666.34;;;10.26;69.43
50852;BME280;43953;45.508;-122.806;2023-04-21T01:20:59;101665.50;;;10.25;69.61
50852;BME280;43953;45.508;-122.806;2023-04-21T01:21:38;101669.41;;;10.23;69.71
50852;BME280;43953;45.508;-122.806;2023-04-21T01:22:13;101672.09;;;10.23;69.43
50852;BME280;43953;45.508;-122.806;2023-04-21T01:22:45;101671.25;;;10.22;69.80
50852;BME280;43953;45.508;-122.806;2023-04-21T01:23:17;101662.34;;;10.22;69.68
50852;BME280;43953;45.508;-122.806;2023-04-21T01:23:51;101666.72;;;10.23;69.57
50852;BME280;43953;45.508;-122.806;2023-04-21T01:24:23;101661.53;;;10.21;69.88
50852;BME280;43953;45.508;-122.806;2023-04-21T01:24:55;101667.56;;;10.23;69.76
50852;BME280;43953;45.508;-122.806;2023-04-21T01:25:27;101665.03;;;10.22;69.92
50852;BME280;43953;45.508;-122.806;2023-04-21T01:25:59;101662.34;;;10.22;69.71
50852;BME280;43953;45.508;-122.806;2023-04-21T01:26:31;101667.56;;;10.23;69.62
50852;BME280;43953;45.508;-122.806;2023-04-21T01:27:07;101672.09;;;10.23;69.65
50852;BME280;43953;45.508;-122.806;2023-04-21T01:27:39;101666.72;;;10.23;69.61
50852;BME280;43953;45.508;-122.806;2023-04-21T01:28:10;101662.00;;;10.25;69.88
50852;BME280;43953;45.508;-122.806;2023-04-21T01:28:42;101668.06;;;10.27;69.63
50852;BME280;43953;45.508;-122.806;2023-04-21T01:29:15;101657.09;;;10.29;69.64
50852;BME280;43953;45.508;-122.806;2023-04-21T01:29:51;101665.84;;;10.31;69.51
50852;BME280;43953;45.508;-122.806;2023-04-21T01:30:23;101653.03;;;10.33;69.34
50852;BME280;43953;45.508;-122.806;2023-04-21T01:30:54;101663.59;;;10.34;69.26
50852;BME280;43953;45.508;-122.806;2023-04-21T01:31:26;101667.13;;;10.35;69.42
50852;BME280;43953;45.508;-122.806;2023-04-21T01:32:02;101668.00;;;10.35;69.07
50852;BME280;43953;45.508;-122.806;2023-04-21T01:32:34;101657.22;;;10.35;69.25
50852;BME280;43953;45.508;-122.806;2023-04-21T01:33:06;101661.94;;;10.33;69.35
50852;BME280;43953;45.508;-122.806;2023-04-21T01:33:38;101660.25;;;10.32;69.39
50852;BME280;43953;45.508;-122.806;2023-04-21T01:34:10;101661.28;;;10.31;69.17
50852;BME280;43953;45.508;-122.806;2023-04-21T01:34:42;101659.63;;;10.30;69.69
50852;BME280;43953;45.508;-122.806;2023-04-21T01:35:14;101656.25;;;10.28;69.85
50852;BME280;43953;45.508;-122.806;2023-04-21T01:35:46;101663.31;;;10.29;69.71
50852;BME280;43953;45.508;-122.806;2023-04-21T01:36:18;101658.97;;;10.28;69.41
50852;BME280;43953;45.508;-122.806;2023-04-21T01:36:49;101665.38;;;10.27;69.72
50852;BME280;43953;45.508;-122.806;2023-04-21T01:37:24;101655.56;;;10.26;69.55
50852;BME280;43953;45.508;-122.806;2023-04-21T01:37:56;101662.00;;;10.25;69.94
50852;BME280;43953;45.508;-122.806;2023-04-21T01:38:28;101657.44;;;10.25;69.64
50852;BME280;43953;45.508;-122.806;2023-04-21T01:39:00;101658.97;;;10.28;69.68
50852;BME280;43953;45.508;-122.806;2023-04-21T01:39:31;101662.31;;;10.30;69.66
50852;BME280;43953;45.508;-122.806;2023-04-21T01:40:05;101659.63;;;10.30;69.50
50852;BME280;43953;45.508;-122.806;2023-04-21T01:40:39;101658.59;;;10.31;69.61
50852;BME280;43953;45.508;-122.806;2023-04-21T01:41:13;101656.94;;;10.30;69.52
50852;BME280;43953;45.508;-122.806;2023-04-21T01:41:44;101663.97;;;10.31;69.55
50852;BME280;43953;45.508;-122.806;2023-04-21T01:42:17;101658.59;;;10.31;69.54
50852;BME280;43953;45.508;-122.806;2023-04-21T01:42:49;101658.59;;;10.31;69.44
50852;BME280;43953;45.508;-122.806;2023-04-21T01:43:23;101662.13;;;10.32;69.56
50852;BME280;43953;45.508;-122.806;2023-04-21T01:43:55;101655.25;;;10.29;69.40
50852;BME280;43953;45.508;-122.806;2023-04-21T01:44:27;101657.09;;;10.29;69.42
50852;BME280;43953;45.508;-122.806;2023-04-21T01:44:59;101661.66;;;10.28;69.68
50852;BME280;43953;45.508;-122.806;2023-04-21T01:45:31;101660.00;;;10.27;69.31
50852;BME280;43953;45.508;-122.806;2023-04-21T01:46:04;101668.19;;;10.25;69.94
50852;BME280;43953;45.508;-122.806;2023-04-21T01:46:36;101657.63;;;10.24;69.47
50852;BME280;43953;45.508;-122.806;2023-04-21T01:47:08;101654.94;;;10.24;69.71
50852;BME280;43953;45.508;-122.806;2023-04-21T01:47:41;101651.41;;;10.23;69.89
50852;BME280;43953;45.508;-122.806;2023-04-21T01:48:13;101658.00;;;10.21;69.69
50852;BME280;43953;45.508;-122.806;2023-04-21T01:48:45;101648.91;;;10.22;69.75
50852;BME280;43953;45.508;-122.806;2023-04-21T01:49:16;101656.13;;;10.21;69.63
50852;BME280;43953;45.508;-122.806;2023-04-21T01:49:48;101649.94;;;10.21;69.68
50852;BME280;43953;45.508;-122.806;2023-04-21T01:50:20;101655.31;;;10.21;69.74
50852;BME280;43953;45.508;-122.806;2023-04-21T01:50:52;101649.94;;;10.21;69.99
50852;BME280;43953;45.508;-122.806;2023-04-21T01:51:23;101654.28;;;10.22;69.77
50852;BME280;43953;45.508;-122.806;2023-04-21T01:51:57;101646.22;;;10.22;69.81
50852;BME280;43953;45.508;-122.806;2023-04-21T01:52:28;101646.22;;;10.22;69.62
50852;BME280;43953;45.508;-122.806;2023-04-21T01:53:00;101648.91;;;10.22;69.74
50852;BME280;43953;45.508;-122.806;2023-04-21T01:53:32;101641.66;;;10.22;69.72
50852;BME280;43953;45.508;-122.806;2023-04-21T01:54:04;101649.72;;;10.22;69.74
50852;BME280;43953;45.508;-122.806;2023-04-21T01:54:36;101651.59;;;10.22;69.58
50852;BME280;43953;45.508;-122.806;2023-04-21T01:55:08;101646.22;;;10.22;69.63
50852;BME280;43953;45.508;-122.806;2023-04-21T01:55:40;101644.06;;;10.17;69.97
50852;BME280;43953;45.508;-122.806;2023-04-21T01:56:14;101640.91;;;10.14;69.64
50852;BME280;43953;45.508;-122.806;2023-04-21T01:56:46;101638.22;;;10.14;69.80
50852;BME280;43953;45.508;-122.806;2023-04-21T01:57:18;101639.03;;;10.14;69.98
50852;BME280;43953;45.508;-122.806;2023-04-21T01:57:49;101628.28;;;10.14;70.04
50852;BME280;43953;45.508;-122.806;2023-04-21T01:58:21;101640.72;;;10.15;69.70
50852;BME280;43953;45.508;-122.806;2023-04-21T01:58:53;101635.34;;;10.15;69.94
50852;BME280;43953;45.508;-122.806;2023-04-21T01:59:25;101622.72;;;10.16;70.02
50852;BME280;43953;45.508;-122.806;2023-04-21T01:59:56;101632.47;;;10.17;70.07
50852;BME280;43953;45.508;-122.806;2023-04-21T02:00:29;101634.31;;;10.16;70.05
50852;BME280;43953;45.508;-122.806;2023-04-21T02:01:00;101631.47;;;10.18;69.59
50852;BME280;43953;45.508;-122.806;2023-04-21T02:01:32;101638.66;;;10.17;69.86
50852;BME280;43953;45.508;-122.806;2023-04-21T02:02:06;101634.53;;;10.15;69.82
50852;BME280;43953;45.508;-122.806;2023-04-21T02:02:37;101632.66;;;10.15;69.90
50852;BME280;43953;45.508;-122.806;2023-04-21T02:03:09;101632.66;;;10.15;69.59
50852;BME280;43953;45.508;-122.806;2023-04-21T02:03:41;101625.41;;;10.16;69.79
50852;BME280;43953;45.508;-122.806;2023-04-21T02:04:13;101625.41;;;10.16;70.03
50852;BME280;43953;45.508;-122.806;2023-04-21T02:04:44;101625.41;;;10.16;69.80
50852;BME280;43953;45.508;-122.806;2023-04-21T02:05:16;101629.97;;;10.15;69.71
50852;BME280;43953;45.508;-122.806;2023-04-21T02:05:49;101637.00;;;10.16;70.04
50852;BME280;43953;45.508;-122.806;2023-04-21T02:06:21;101628.78;;;10.18;69.70
50852;BME280;43953;45.508;-122.806;2023-04-21T02:06:53;101628.56;;;10.19;69.71
50852;BME280;43953;45.508;-122.806;2023-04-21T02:07:24;101627.56;;;10.20;69.65
50852;BME280;43953;45.508;-122.806;2023-04-21T02:07:56;101623.84;;;10.21;69.70
50852;BME280;43953;45.508;-122.806;2023-04-21T02:08:28;101630.88;;;10.22;69.94
50852;BME280;43953;45.508;-122.806;2023-04-21T02:09:00;101628.03;;;10.24;69.91
50852;BME280;43953;45.508;-122.806;2023-04-21T02:09:31;101624.31;;;10.25;69.77
50852;BME280;43953;45.508;-122.806;2023-04-21T02:10:03;101621.63;;;10.25;69.81
50852;BME280;43953;45.508;-122.806;2023-04-21T02:10:35;101630.53;;;10.25;69.41
50852;BME280;43953;45.508;-122.806;2023-04-21T02:11:07;101628.84;;;10.24;69.77
50852;BME280;43953;45.508;-122.806;2023-04-21T02:11:39;101625.34;;;10.24;69.75
50852;BME280;43953;45.508;-122.806;2023-04-21T02:12:11;101623.66;;;10.23;69.78
50852;BME280;43953;45.508;-122.806;2023-04-21T02:12:43;101619.97;;;10.24;69.62
50852;BME280;43953;45.508;-122.806;2023-04-21T02:13:14;101626.34;;;10.23;69.31
50852;BME280;43953;45.508;-122.806;2023-04-21T02:13:46;101617.44;;;10.22;69.68
50852;BME280;43953;45.508;-122.806;2023-04-21T02:14:18;101624.88;;;10.20;69.60
50852;BME280;43953;45.508;-122.806;2023-04-21T02:14:49;101617.13;;;10.17;69.44
50852;BME280;43953;45.508;-122.806;2023-04-21T02:15:21;101631.34;;;10.11;69.94
50852;BME280;43953;45.508;-122.806;2023-04-21T02:15:53;101626.88;;;10.03;70.23
50852;BME280;43953;45.508;-122.806;2023-04-21T02:16:25;101623.53;;;10.01;70.01
50852;BME280;43953;45.508;-122.806;2023-04-21T02:16:57;101620.47;;;10.05;70.25
50852;BME280;43953;45.508;-122.806;2023-04-21T02:17:28;101629.38;;;10.05;70.36
50852;BME280;43953;45.508;-122.806;2023-04-21T02:18:00;101631.44;;;10.03;70.20
50852;BME280;43953;45.508;-122.806;2023-04-21T02:18:32;101628.91;;;10.01;69.98
50852;BME280;43953;45.508;-122.806;2023-04-21T02:19:04;101633.63;;;9.99;70.19
50852;BME280;43953;45.508;-122.806;2023-04-21T02:19:36;101627.06;;;10.02;70.41
50852;BME280;43953;45.508;-122.806;2023-04-21T02:20:09;101627.88;;;10.02;70.47
50852;BME280;43953;45.508;-122.806;2023-04-21T02:20:42;101633.09;;;10.04;70.42
50852;BME280;43953;45.508;-122.806;2023-04-21T02:21:14;101629.38;;;10.05;70.05
50852;BME280;43953;45.508;-122.806;2023-04-21T02:21:45;101630.03;;;10.07;70.41
50852;BME280;43953;45.508;-122.806;2023-04-21T02:22:17;101628.19;;;10.08;70.34
50852;BME280;43953;45.508;-122.806;2023-04-21T02:22:49;101629.66;;;10.10;70.10
50852;BME280;43953;45.508;-122.806;2023-04-21T02:23:21;101629.88;;;10.09;70.11
50852;BME280;43953;45.508;-122.806;2023-04-21T02:23:53;101617.88;;;10.11;70.20
50852;BME280;43953;45.508;-122.806;2023-04-21T02:24:24;101631.16;;;10.13;70.04
50852;BME280;43953;45.508;-122.806;2023-04-21T02:24:56;101630.13;;;10.14;70.13
50852;BME280;43953;45.508;-122.806;2023-04-21T02:25:28;101616.50;;;10.15;70.04
50852;BME280;43953;45.508;-122.806;2023-04-21T02:26:00;101620.88;;;10.16;70.18
50852;BME280;43953;45.508;-122.806;2023-04-21T02:26:32;101619.66;;;10.19;69.78
50852;BME280;43953;45.508;-122.806;2023-04-21T02:27:04;101617.81;;;10.19;70.13
50852;BME280;43953;45.508;-122.806;2023-04-21T02:27:36;101620.69;;;10.18;70.21
50852;BME280;43953;45.508;-122.806;2023-04-21T02:28:07;101629.31;;;10.13;70.22
50852;BME280;43953;45.508;-122.806;2023-04-21T02:28:39;101611.66;;;10.11;70.09
50852;BME280;43953;45.508;-122.806;2023-04-21T02:29:11;101614.34;;;10.11;69.85
50852;BME280;43953;45.508;-122.806;2023-04-21T02:29:43;101612.50;;;10.11;70.30
50852;BME280;43953;45.508;-122.806;2023-04-21T02:30:14;101611.50;;;10.12;70.21
50852;BME280;43953;45.508;-122.806;2023-04-21T02:30:46;101611.28;;;10.14;70.11
50852;BME280;43953;45.508;-122.806;2023-04-21T02:31:18;101611.13;;;10.15;70.29
50852;BME280;43953;45.508;-122.806;2023-04-21T02:31:50;101611.75;;;10.17;69.86
50852;BME280;43953;45.508;-122.806;2023-04-21T02:32:21;101611.59;;;10.19;70.20
50852;BME280;43953;45.508;-122.806;2023-04-21T02:32:53;101597.09;;;10.20;69.83
50852;BME280;43953;45.508;-122.806;2023-04-21T02:33:25;101612.25;;;10.21;70.14
50852;BME280;43953;45.508;-122.806;2023-04-21T02:33:57;101603.97;;;10.22;69.98
50852;BME280;43953;45.508;-122.806;2023-04-21T02:34:29;101602.78;;;10.25;69.88
50852;BME280;43953;45.508;-122.806;2023-04-21T02:35:01;101606.16;;;10.27;69.74
50852;BME280;43953;45.508;-122.806;2023-04-21T02:35:33;101599.56;;;10.30;69.75
50852;BME280;43953;45.508;-122.806;2023-04-21T02:36:05;101594.19;;;10.30;69.72
50852;BME280;43953;45.508;-122.806;2023-04-21T02:36:37;101595.19;;;10.29;69.99
50852;BME280;43953;45.508;-122.806;2023-04-21T02:37:08;101599.56;;;10.30;69.70
50852;BME280;43953;45.508;-122.806;2023-04-21T02:37:40;101598.53;;;10.31;69.96
50852;BME280;43953;45.508;-122.806;2023-04-21T02:38:12;101598.34;;;10.32;69.68
50852;BME280;43953;45.508;-122.806;2023-04-21T02:38:44;101600.19;;;10.32;69.56
50852;BME280;43953;45.508;-122.806;2023-04-21T02:39:15;101594.81;;;10.32;69.63
50852;BME280;43953;45.508;-122.806;2023-04-21T02:39:47;101595.03;;;10.30;69.92
50852;BME280;43953;45.508;-122.806;2023-04-21T02:40:19;101586.94;;;10.30;69.60
50852;BME280;43953;45.508;-122.806;2023-04-21T02:40:51;101590.47;;;10.31;69.90
50852;BME280;43953;45.508;-122.806;2023-04-21T02:41:23;101585.78;;;10.24;70.37
50852;BME280;43953;45.508;-122.806;2023-04-21T02:41:55;101588.66;;;10.23;70.02
50852;BME280;43953;45.508;-122.806;2023-04-21T02:42:27;101599.41;;;10.23;69.87
50852;BME280;43953;45.508;-122.806;2023-04-21T02:42:58;101593.78;;;10.18;70.43